createdAt,value
2022-12-17T00:02:31.089Z,29.75
2022-12-17T00:05:16.166Z,39.63
2022-12-17T00:08:01.234Z,40.25
2022-12-17T00:10:46.243Z,40.30
2022-12-17T00:13:38.868Z,40.50
2022-12-17T00:16:24.196Z,40.10
2022-12-17T00:19:09.755Z,39.63
2022-12-17T00:24:39.829Z,37.47
2022-12-17T00:27:24.580Z,38.38
2022-12-17T00:30:09.443Z,38.17
2022-12-17T00:32:54.487Z,36.17
2022-12-17T00:35:39.480Z,37.65
2022-12-17T00:38:24.278Z,36.50
2022-12-17T00:41:10.276Z,36.17
2022-12-17T00:43:56.360Z,35.42
2022-12-17T00:46:41.572Z,37.53
2022-12-17T00:49:26.679Z,35.35
2022-12-17T00:52:11.461Z,36.70
2022-12-17T00:54:56.459Z,26.45
2022-12-17T00:57:41.530Z,35.97
2022-12-17T01:00:27.001Z,37.58
2022-12-17T01:03:12.359Z,36.22
2022-12-17T01:05:57.584Z,38.28
2022-12-17T01:09:02.351Z,35.45
2022-12-17T01:11:49.927Z,34.97
2022-12-17T01:14:34.800Z,36.03
2022-12-17T01:17:19.576Z,36.78
2022-12-17T01:20:04.388Z,34.95
2022-12-17T01:22:49.220Z,27.05
2022-12-17T01:25:34.166Z,37.50
2022-12-17T01:28:18.989Z,36.13
2022-12-17T01:31:04.007Z,37.17
2022-12-17T01:33:48.729Z,36.08
2022-12-17T01:36:33.750Z,34.95
2022-12-17T01:42:31.343Z,38.00
2022-12-17T01:45:16.069Z,36.97
2022-12-17T01:48:03.523Z,36.08
2022-12-17T01:50:52.917Z,38.03
2022-12-17T01:53:41.190Z,37.10
2022-12-17T01:56:26.300Z,38.00
2022-12-17T01:59:11.770Z,38.72
2022-12-17T02:04:41.732Z,34.97
2022-12-17T02:07:26.432Z,36.95
2022-12-17T02:10:31.789Z,35.13
2022-12-17T02:13:25.354Z,37.53
2022-12-17T02:16:14.216Z,35.35
2022-12-17T02:19:03.542Z,37.38
2022-12-17T02:21:49.897Z,35.92
2022-12-17T02:24:54.010Z,36.47
2022-12-17T02:27:40.277Z,35.83
2022-12-17T02:30:25.636Z,36.28
2022-12-17T02:33:11.428Z,36.40
2022-12-17T02:36:00.964Z,36.22
2022-12-17T02:38:46.826Z,36.40
2022-12-17T02:41:36.818Z,37.70
2022-12-17T02:44:23.121Z,35.58
2022-12-17T02:47:08.678Z,37.47
2022-12-17T02:49:53.481Z,37.38
2022-12-17T02:52:39.925Z,37.15
2022-12-17T02:55:25.809Z,38.33
2022-12-17T02:58:11.098Z,38.33
2022-12-17T03:00:55.951Z,37.00
2022-12-17T03:03:42.903Z,30.23
2022-12-17T03:06:29.746Z,38.40
2022-12-17T03:09:14.659Z,39.00
2022-12-17T03:11:59.743Z,39.47
2022-12-17T03:14:45.001Z,38.70
2022-12-17T03:17:30.029Z,38.90
2022-12-17T03:20:14.837Z,38.45
2022-12-17T03:23:01.381Z,40.38
2022-12-17T03:25:46.295Z,39.85
2022-12-17T03:28:31.391Z,37.97
2022-12-17T03:31:17.287Z,38.55
2022-12-17T03:34:02.429Z,41.00
2022-12-17T03:36:48.191Z,40.72
2022-12-17T03:39:33.097Z,39.83
2022-12-17T03:42:17.949Z,39.30
2022-12-17T03:45:02.730Z,40.00
2022-12-17T03:47:47.697Z,38.85
2022-12-17T03:50:32.363Z,38.63
2022-12-17T03:53:18.376Z,40.58
2022-12-17T03:56:03.145Z,39.00
2022-12-17T03:58:47.993Z,39.42
2022-12-17T04:01:32.806Z,40.67
2022-12-17T04:04:18.032Z,40.67
2022-12-17T04:07:02.964Z,39.13
2022-12-17T04:09:47.802Z,41.97
2022-12-17T04:12:32.647Z,40.35
2022-12-17T04:15:17.463Z,31.15
2022-12-17T04:18:02.449Z,41.72
2022-12-17T04:20:47.441Z,41.10
2022-12-17T04:23:32.420Z,42.13
2022-12-17T04:26:17.666Z,42.00
2022-12-17T04:29:02.699Z,44.13
2022-12-17T04:31:47.807Z,43.75
2022-12-17T04:34:32.557Z,45.42
2022-12-17T04:37:17.517Z,47.47
2022-12-17T04:40:02.429Z,44.92
2022-12-17T04:42:47.681Z,45.45
2022-12-17T04:45:32.526Z,45.13
2022-12-17T04:48:23.960Z,46.13
2022-12-17T04:51:08.943Z,46.28
2022-12-17T04:53:53.749Z,36.08
2022-12-17T04:56:39.190Z,47.38
2022-12-17T05:02:09.023Z,44.20
2022-12-17T05:04:54.230Z,46.72
2022-12-17T05:07:44.029Z,45.25
2022-12-17T05:10:28.799Z,45.97
2022-12-17T05:13:16.985Z,47.53
2022-12-17T05:16:02.016Z,44.45
2022-12-17T05:18:57.455Z,45.65
2022-12-17T05:21:42.166Z,45.88
2022-12-17T05:24:27.113Z,33.97
2022-12-17T05:27:11.990Z,33.15
2022-12-17T05:29:56.898Z,37.90
2022-12-17T05:32:41.716Z,34.67
2022-12-17T05:35:26.990Z,46.38
2022-12-17T05:38:12.022Z,47.47
2022-12-17T05:41:07.400Z,47.42
2022-12-17T05:43:52.412Z,47.35
2022-12-17T05:46:37.247Z,49.45
2022-12-17T05:49:22.520Z,46.38
2022-12-17T05:52:07.274Z,45.63
2022-12-17T05:55:08.939Z,47.83
2022-12-17T05:57:56.536Z,45.45
2022-12-17T06:00:41.727Z,46.35
2022-12-17T06:03:27.362Z,46.92
2022-12-17T06:06:12.930Z,46.42
2022-12-17T06:11:42.461Z,42.22
2022-12-17T06:14:27.460Z,36.47
2022-12-17T06:17:12.388Z,43.10
2022-12-17T06:19:58.830Z,44.35
2022-12-17T06:22:44.046Z,44.53
2022-12-17T06:25:28.775Z,42.45
2022-12-17T06:28:20.269Z,43.70
2022-12-17T06:31:08.881Z,42.28
2022-12-17T06:33:53.781Z,43.03
2022-12-17T06:36:38.541Z,44.00
2022-12-17T06:39:23.538Z,34.22
2022-12-17T06:42:08.294Z,43.42
2022-12-17T06:44:53.157Z,31.05
2022-12-17T06:47:37.994Z,41.28
2022-12-17T06:50:23.440Z,41.63
2022-12-17T06:53:16.568Z,37.70
2022-12-17T06:56:01.839Z,40.58
2022-12-17T06:58:46.786Z,38.58
2022-12-17T07:01:31.807Z,40.00
2022-12-17T07:04:17.025Z,38.33
2022-12-17T07:07:01.836Z,40.33
2022-12-17T07:09:46.917Z,38.30
2022-12-17T07:12:31.831Z,39.42
2022-12-17T07:15:16.588Z,39.70
2022-12-17T07:18:01.399Z,38.25
2022-12-17T07:20:46.311Z,27.33
2022-12-17T07:23:31.299Z,37.20
2022-12-17T07:26:16.498Z,39.72
2022-12-17T07:29:01.638Z,40.20
2022-12-17T07:31:46.573Z,40.30
2022-12-17T07:34:31.705Z,40.78
2022-12-17T07:37:20.451Z,37.72
2022-12-17T07:40:06.012Z,41.00
2022-12-17T07:42:50.784Z,38.80
2022-12-17T07:45:35.660Z,39.50
2022-12-17T07:48:20.518Z,29.02
2022-12-17T07:51:08.768Z,40.25
2022-12-17T07:53:53.758Z,40.47
2022-12-17T07:56:38.629Z,41.38
2022-12-17T07:59:23.502Z,38.47
2022-12-17T08:02:12.182Z,36.58
2022-12-17T08:04:57.245Z,36.10
2022-12-17T08:07:42.361Z,38.17
2022-12-17T08:10:27.609Z,34.40
2022-12-17T08:13:32.621Z,31.75
2022-12-17T08:16:17.850Z,33.15
2022-12-17T08:19:02.622Z,33.15
2022-12-17T08:21:47.478Z,25.85
2022-12-17T08:24:32.291Z,34.58
2022-12-17T08:27:17.199Z,36.70
2022-12-17T08:30:02.081Z,35.50
2022-12-17T08:32:46.952Z,33.88
2022-12-17T08:35:31.825Z,34.85
2022-12-17T08:38:20.680Z,33.42
2022-12-17T08:41:05.575Z,32.97
2022-12-17T08:43:50.665Z,33.28
2022-12-17T08:46:36.313Z,31.73
2022-12-17T08:49:21.333Z,34.35
2022-12-17T08:52:06.211Z,26.98
2022-12-17T08:54:51.369Z,34.97
2022-12-17T08:57:36.179Z,35.13
2022-12-17T09:00:21.128Z,26.67
2022-12-17T09:03:06.184Z,27.40
2022-12-17T09:05:51.274Z,35.63
2022-12-17T09:08:36.158Z,33.65
2022-12-17T09:11:21.028Z,35.65
2022-12-17T09:14:05.843Z,26.13
2022-12-17T09:16:50.660Z,34.35
2022-12-17T09:19:35.833Z,23.75
2022-12-17T09:22:20.755Z,31.80
2022-12-17T09:25:05.573Z,20.98
2022-12-17T09:27:50.506Z,28.13
2022-12-17T09:30:35.426Z,26.02
2022-12-17T09:33:20.330Z,26.95
2022-12-17T09:36:05.189Z,25.15
2022-12-17T09:38:50.095Z,23.08
2022-12-17T09:41:45.371Z,24.05
2022-12-17T09:44:55.615Z,18.55
2022-12-17T09:47:50.627Z,24.70
2022-12-17T09:50:35.967Z,25.15
2022-12-17T09:53:22.075Z,24.45
2022-12-17T09:56:08.430Z,24.63
2022-12-17T09:58:54.916Z,25.70
2022-12-17T10:01:43.957Z,24.10
2022-12-17T10:04:36.833Z,24.35
2022-12-17T10:07:21.610Z,25.33
2022-12-17T10:10:09.531Z,22.57
2022-12-17T10:12:55.295Z,20.38
2022-12-17T10:15:40.119Z,19.40
2022-12-17T10:18:26.729Z,19.63
2022-12-17T10:21:19.812Z,18.88
2022-12-17T10:24:04.708Z,19.60
2022-12-17T10:26:53.076Z,18.83
2022-12-17T10:29:45.493Z,19.17
2022-12-17T10:32:35.554Z,18.05
2022-12-17T10:35:39.365Z,18.92
2022-12-17T10:38:43.167Z,18.58
2022-12-17T10:41:57.212Z,17.75
2022-12-17T10:44:42.320Z,16.75
2022-12-17T10:47:37.720Z,16.67
2022-12-17T10:50:25.313Z,17.05
2022-12-17T10:53:10.017Z,15.90
2022-12-17T10:55:54.845Z,16.15
2022-12-17T10:58:44.897Z,17.10
2022-12-17T11:01:31.662Z,17.65
2022-12-17T11:04:24.867Z,15.40
2022-12-17T11:07:11.735Z,15.70
2022-12-17T11:10:09.866Z,15.35
2022-12-17T11:12:57.978Z,15.93
2022-12-17T11:15:55.465Z,15.63
2022-12-17T11:18:47.242Z,14.57
2022-12-17T11:21:38.635Z,15.88
2022-12-17T11:24:24.444Z,15.05
2022-12-17T11:27:11.900Z,14.13
2022-12-17T11:29:56.787Z,14.95
2022-12-17T11:32:49.178Z,14.40
2022-12-17T11:35:43.443Z,14.48
2022-12-17T11:38:44.073Z,15.20
2022-12-17T11:41:32.041Z,15.20
2022-12-17T11:44:29.989Z,15.18
2022-12-17T11:47:23.874Z,15.57
2022-12-17T11:50:21.758Z,15.43
2022-12-17T11:53:32.018Z,16.20
2022-12-17T11:56:42.226Z,14.18
2022-12-17T11:59:33.301Z,14.90
2022-12-17T12:02:21.379Z,14.00
2022-12-17T12:05:21.893Z,14.65
2022-12-17T12:08:16.886Z,15.20
2022-12-17T12:11:07.421Z,13.55
2022-12-17T12:13:52.197Z,13.77
2022-12-17T12:16:44.725Z,13.13
2022-12-17T12:19:59.111Z,13.70
2022-12-17T12:23:04.079Z,11.70
2022-12-17T12:25:49.087Z,12.50
2022-12-17T12:29:00.312Z,12.75
2022-12-17T12:31:58.031Z,11.32
2022-12-17T12:34:44.585Z,12.38
2022-12-17T12:37:31.323Z,12.52
2022-12-17T12:40:20.754Z,12.57
2022-12-17T12:43:08.804Z,12.95
2022-12-17T12:46:02.270Z,12.93
2022-12-17T12:48:52.534Z,12.43
2022-12-17T12:51:43.384Z,13.93
2022-12-17T12:54:46.636Z,11.93
2022-12-17T12:57:43.822Z,12.00
2022-12-17T13:00:40.850Z,11.90
2022-12-17T13:03:42.721Z,11.52
2022-12-17T13:06:09.480Z,13.85
2022-12-17T13:08:36.243Z,12.82
2022-12-17T13:11:10.724Z,13.30
2022-12-17T13:13:55.799Z,13.60
2022-12-17T13:16:48.947Z,14.75
2022-12-17T13:19:41.783Z,14.18
2022-12-17T13:22:17.632Z,14.75
2022-12-17T13:24:49.328Z,14.45
2022-12-17T13:27:27.932Z,14.68
2022-12-17T13:29:54.293Z,16.42
2022-12-17T13:32:23.465Z,17.90
2022-12-17T13:35:10.719Z,16.40
2022-12-17T13:37:49.338Z,17.70
2022-12-17T13:40:23.570Z,16.98
2022-12-17T13:42:50.345Z,17.40
2022-12-17T13:45:17.530Z,16.25
2022-12-17T13:47:46.097Z,14.82
2022-12-17T13:50:36.692Z,14.93
2022-12-17T13:53:10.824Z,15.38
2022-12-17T13:55:37.940Z,13.60
2022-12-17T13:58:04.277Z,15.45
2022-12-17T14:00:30.996Z,17.10
2022-12-17T14:02:59.524Z,17.77
2022-12-17T14:05:52.402Z,17.63
2022-12-17T14:08:20.779Z,17.33
2022-12-17T14:10:49.927Z,16.98
2022-12-17T14:13:16.394Z,16.90
2022-12-17T14:15:47.279Z,17.70
2022-12-17T14:18:17.996Z,18.52
2022-12-17T14:20:44.613Z,17.58
2022-12-17T14:23:31.190Z,16.17
2022-12-17T14:26:00.854Z,14.98
2022-12-17T14:28:34.756Z,14.90
2022-12-17T14:31:26.645Z,16.77
2022-12-17T14:34:13.487Z,15.98
2022-12-17T14:39:15.879Z,12.68
2022-12-17T14:42:00.885Z,21.05
2022-12-17T14:44:28.315Z,14.32
2022-12-17T14:47:33.066Z,15.30
2022-12-17T14:50:18.062Z,13.77
2022-12-17T14:52:45.933Z,11.68
2022-12-17T14:55:24.269Z,15.57
2022-12-17T14:57:51.209Z,15.65
2022-12-17T15:00:18.561Z,15.95
2022-12-17T15:02:48.135Z,13.13
2022-12-17T15:05:15.685Z,16.05
2022-12-17T15:07:42.307Z,15.77
2022-12-17T15:10:10.561Z,16.52
2022-12-17T15:12:36.909Z,15.65
2022-12-17T15:15:03.630Z,17.85
2022-12-17T15:17:29.954Z,14.82
2022-12-17T15:19:56.534Z,13.55
2022-12-17T15:22:23.086Z,13.20
2022-12-17T15:24:49.406Z,15.70
2022-12-17T15:27:16.662Z,15.25
2022-12-17T15:29:43.652Z,14.35
2022-12-17T15:32:17.054Z,14.65
2022-12-17T15:34:43.411Z,14.73
2022-12-17T15:37:09.745Z,15.73
2022-12-17T15:39:37.219Z,14.43
2022-12-17T15:42:22.030Z,19.02
2022-12-17T15:44:48.359Z,10.60
2022-12-17T15:47:14.693Z,14.55
2022-12-17T15:49:41.090Z,13.43
2022-12-17T15:52:07.396Z,14.27
2022-12-17T15:54:33.788Z,15.52
2022-12-17T15:57:00.125Z,14.13
2022-12-17T15:59:26.474Z,13.77
2022-12-17T16:01:53.054Z,15.38
2022-12-17T16:04:24.855Z,14.82
2022-12-17T16:06:51.641Z,13.30
2022-12-17T16:09:17.962Z,12.90
2022-12-17T16:11:44.298Z,14.85
2022-12-17T16:14:10.729Z,15.25
2022-12-17T16:16:37.094Z,13.45
2022-12-17T16:19:03.668Z,14.27
2022-12-17T16:21:29.985Z,12.85
2022-12-17T16:23:56.342Z,13.45
2022-12-17T16:26:22.902Z,14.02
2022-12-17T16:28:49.211Z,14.23
2022-12-17T16:31:16.199Z,13.50
2022-12-17T16:33:43.747Z,14.43
2022-12-17T16:36:11.912Z,15.00
2022-12-17T16:38:45.352Z,14.05
2022-12-17T16:41:12.135Z,14.98
2022-12-17T16:43:38.693Z,14.60
2022-12-17T16:46:10.632Z,15.50
2022-12-17T16:48:39.483Z,15.48
2022-12-17T16:51:18.986Z,14.77
2022-12-17T16:53:50.405Z,14.30
2022-12-17T16:56:17.759Z,15.13
2022-12-17T16:58:44.173Z,16.20
2022-12-17T17:01:10.965Z,14.50
2022-12-17T17:03:41.552Z,15.98
2022-12-17T17:06:08.805Z,15.77
2022-12-17T17:08:39.178Z,16.50
2022-12-17T17:11:12.004Z,15.02
2022-12-17T17:13:38.969Z,16.95
2022-12-17T17:16:05.944Z,16.83
2022-12-17T17:18:32.765Z,16.80
2022-12-17T17:21:15.589Z,16.67
2022-12-17T17:23:42.167Z,17.88
2022-12-17T17:26:09.137Z,18.20
2022-12-17T17:28:35.874Z,16.65
2022-12-17T17:31:03.392Z,16.55
2022-12-17T17:33:30.207Z,17.63
2022-12-17T17:36:04.215Z,16.17
2022-12-17T17:38:32.263Z,12.60
2022-12-17T17:40:58.738Z,16.00
2022-12-17T17:43:25.260Z,20.65
2022-12-17T17:45:53.003Z,17.52
2022-12-17T17:48:19.554Z,17.25
2022-12-17T17:50:57.063Z,25.15
2022-12-17T17:53:23.432Z,23.30
2022-12-17T17:55:49.774Z,16.50
2022-12-17T17:58:16.076Z,17.23
2022-12-17T18:00:42.396Z,17.20
2022-12-17T18:03:08.785Z,21.27
2022-12-17T18:05:41.692Z,20.60
2022-12-17T18:08:09.048Z,21.52
2022-12-17T18:10:35.402Z,25.77
2022-12-17T18:13:20.432Z,26.52
2022-12-17T18:15:46.783Z,26.55
2022-12-17T18:18:14.779Z,26.50
2022-12-17T18:20:41.246Z,27.77
2022-12-17T18:23:07.666Z,27.88
2022-12-17T18:25:37.639Z,29.27
2022-12-17T18:28:04.391Z,24.20
2022-12-17T18:30:30.805Z,24.23
2022-12-17T18:32:57.141Z,26.80
2022-12-17T18:35:24.316Z,19.60
2022-12-17T18:37:50.711Z,17.42
2022-12-17T18:40:17.069Z,19.27
2022-12-17T18:43:02.285Z,17.55
2022-12-17T18:47:55.140Z,23.83
2022-12-17T18:50:21.554Z,26.83
2022-12-17T18:52:47.881Z,32.92
2022-12-17T18:55:14.209Z,36.30
2022-12-17T18:57:40.741Z,36.78
2022-12-17T19:00:07.550Z,34.17
2022-12-17T19:02:34.005Z,33.65
2022-12-17T19:05:00.463Z,34.40
2022-12-17T19:07:26.772Z,31.73
2022-12-17T19:09:53.135Z,26.67
2022-12-17T19:12:19.505Z,27.80
2022-12-17T19:14:45.863Z,26.65
2022-12-17T19:17:12.213Z,19.45
2022-12-17T19:19:38.646Z,23.90
2022-12-17T19:22:06.006Z,22.35
2022-12-17T19:24:32.396Z,24.75
2022-12-17T19:26:58.800Z,24.17
2022-12-17T19:29:25.219Z,27.48
2022-12-17T19:31:51.790Z,30.88
2022-12-17T19:34:18.906Z,31.30
2022-12-17T19:36:45.649Z,26.63
2022-12-17T19:39:13.376Z,25.27
2022-12-17T19:41:40.051Z,30.27
2022-12-17T19:44:08.008Z,26.55
2022-12-17T19:46:35.375Z,25.92
2022-12-17T19:49:02.002Z,27.13
2022-12-17T19:51:29.275Z,29.58
2022-12-17T19:53:55.791Z,24.40
2022-12-17T19:56:22.112Z,25.08
2022-12-17T19:58:52.355Z,24.58
2022-12-17T20:01:23.075Z,24.00
2022-12-17T20:03:49.882Z,24.77
2022-12-17T20:06:17.612Z,27.63
2022-12-17T20:08:44.057Z,24.77
2022-12-17T20:11:30.166Z,24.38
2022-12-17T20:14:06.367Z,22.40
2022-12-17T20:16:34.716Z,22.80
2022-12-17T20:19:02.078Z,19.70
2022-12-17T20:21:28.470Z,22.25
2022-12-17T20:23:54.827Z,26.27
2022-12-17T20:26:21.653Z,24.08
2022-12-17T20:28:47.971Z,23.77
2022-12-17T20:31:14.326Z,27.27
2022-12-17T20:33:40.925Z,25.20
2022-12-17T20:36:11.236Z,26.15
2022-12-17T20:38:38.237Z,28.58
2022-12-17T20:41:08.986Z,28.92
2022-12-17T20:43:35.383Z,32.42
2022-12-17T20:46:01.811Z,29.67
2022-12-17T20:48:28.185Z,27.00
2022-12-17T20:50:54.764Z,26.20
2022-12-17T20:53:21.153Z,25.13
2022-12-17T20:55:47.475Z,25.45
2022-12-17T20:58:15.553Z,25.45
2022-12-17T21:00:41.916Z,26.98
2022-12-17T21:03:08.363Z,26.65
2022-12-17T21:05:35.272Z,24.10
2022-12-17T21:08:01.619Z,23.60
2022-12-17T21:10:28.004Z,22.40
2022-12-17T21:13:26.795Z,21.50
2022-12-17T21:16:00.478Z,23.17
2022-12-17T21:18:27.726Z,24.63
2022-12-17T21:20:58.353Z,25.75
2022-12-17T21:23:25.060Z,23.58
2022-12-17T21:25:59.029Z,24.65
2022-12-17T21:28:26.049Z,23.73
2022-12-17T21:30:52.484Z,23.08
2022-12-17T21:33:18.893Z,24.27
2022-12-17T21:35:45.198Z,25.08
2022-12-17T21:38:11.624Z,24.83
2022-12-17T21:40:38.107Z,24.17
2022-12-17T21:43:04.530Z,23.73
2022-12-17T21:45:35.454Z,22.33
2022-12-17T21:48:02.377Z,26.45
2022-12-17T21:50:29.776Z,28.08
2022-12-17T21:52:56.173Z,24.25
2022-12-17T21:55:22.542Z,24.77
2022-12-17T21:57:48.869Z,23.80
2022-12-17T22:00:15.778Z,23.05
2022-12-17T22:02:42.464Z,23.23
2022-12-17T22:05:12.553Z,24.40
2022-12-17T22:07:42.778Z,23.20
2022-12-17T22:10:37.505Z,26.27
2022-12-17T22:13:15.408Z,24.80
2022-12-17T22:15:45.674Z,23.42
2022-12-17T22:18:14.910Z,22.77
2022-12-17T22:20:41.336Z,25.85
2022-12-17T22:23:07.671Z,23.83
2022-12-17T22:25:36.398Z,25.63
2022-12-17T22:28:02.840Z,22.88
2022-12-17T22:30:47.960Z,25.75
2022-12-17T22:33:31.946Z,26.20
2022-12-17T22:37:02.963Z,28.27
2022-12-17T22:41:45.997Z,27.58
2022-12-17T22:44:37.338Z,25.15
2022-12-17T22:44:53.462Z,26.77
2022-12-17T22:47:20.421Z,24.95
2022-12-17T22:49:46.819Z,25.35
2022-12-17T22:52:13.334Z,26.17
2022-12-17T22:54:40.845Z,24.48
2022-12-17T22:57:36.088Z,26.40
2022-12-17T22:59:56.965Z,25.40
2022-12-17T23:02:23.799Z,23.23
2022-12-17T23:04:50.233Z,26.65
2022-12-17T23:07:16.544Z,26.48
2022-12-17T23:09:42.959Z,24.45
2022-12-17T23:12:29.385Z,22.63
2022-12-17T23:14:55.725Z,23.63
2022-12-17T23:17:22.035Z,19.60
2022-12-17T23:19:48.397Z,22.05
2022-12-17T23:22:22.131Z,21.98
2022-12-17T23:24:48.952Z,22.35
2022-12-17T23:27:15.330Z,21.92
2022-12-17T23:29:41.736Z,22.13
2022-12-17T23:32:08.095Z,21.77
2022-12-17T23:34:35.603Z,21.15
2022-12-17T23:37:01.923Z,21.20
2022-12-17T23:39:28.325Z,21.08
2022-12-17T23:41:54.916Z,21.40
2022-12-17T23:44:21.253Z,21.52
2022-12-17T23:46:47.876Z,21.95
2022-12-17T23:49:17.085Z,21.85
2022-12-17T23:51:43.434Z,21.33
2022-12-17T23:54:09.944Z,19.65
2022-12-17T23:56:36.740Z,21.30
2022-12-17T23:59:03.759Z,19.00
